Time;durP1;ratioP1;P1;durP2;ratioP2;P2;SDS_P1;SDS_P2;PMS_P1;PMS_P2;Temp;Humidity;BMP_temperature;BMP_pressure;BME280_temperature;BME280_humidity;BME280_pressure;Samples;Min_cycle;Max_cycle;Signal;HPM_P1;HPM_P2
2023/06/03 00:00:20;;;;;;;9.15;7.10;;;6.10;99.90;;;;;;5018300;28;20076;-75
2023/06/03 00:02:47;;;;;;;9.23;6.45;;;6.10;99.90;;;;;;5035809;28;20426;-75
2023/06/03 00:05:17;;;;;;;9.05;6.47;;;6.00;99.90;;;;;;5035961;28;20076;-77
2023/06/03 00:07:43;;;;;;;10.63;5.72;;;6.00;99.90;;;;;;5017915;28;20045;-77
2023/06/03 00:10:09;;;;;;;7.57;6.22;;;5.90;99.90;;;;;;5035889;28;20029;-75
2023/06/03 00:12:35;;;;;;;10.23;5.47;;;5.80;99.90;;;;;;5017864;28;20025;-76
2023/06/03 00:15:00;;;;;;;14.00;7.70;;;5.70;99.90;;;;;;5035704;28;20087;-76
2023/06/03 00:17:27;;;;;;;9.82;6.40;;;5.80;99.90;;;;;;5035649;28;20022;-78
2023/06/03 00:19:54;;;;;;;8.45;6.43;;;5.80;99.90;;;;;;5035761;28;20100;-77
2023/06/03 00:22:21;;;;;;;10.63;6.95;;;6.10;99.90;;;;;;5035377;28;20045;-76
2023/06/03 00:24:47;;;;;;;10.30;5.90;;;6.40;99.90;;;;;;5035537;28;20039;-76
2023/06/03 00:27:13;;;;;;;10.00;6.50;;;6.50;99.90;;;;;;5035363;28;20021;-76
2023/06/03 00:29:38;;;;;;;9.23;6.32;;;6.70;99.90;;;;;;5035696;28;20025;-76
2023/06/03 00:32:04;;;;;;;7.47;5.72;;;6.70;99.90;;;;;;5035399;28;20035;-77
2023/06/03 00:34:30;;;;;;;7.97;5.22;;;6.80;99.90;;;;;;5035412;28;20025;-76
2023/06/03 00:36:56;;;;;;;7.03;4.78;;;6.80;99.90;;;;;;5035162;28;20024;-77
2023/06/03 00:39:22;;;;;;;5.80;5.00;;;6.80;99.90;;;;;;5017184;28;20040;-75
2023/06/03 00:41:48;;;;;;;7.50;4.18;;;6.90;99.90;;;;;;5021088;28;20030;-77
2023/06/03 00:44:13;;;;;;;12.77;4.30;;;6.90;99.90;;;;;;5014162;28;20471;-76
2023/06/03 00:46:41;;;;;;;6.28;4.22;;;6.90;99.90;;;;;;5019529;28;20022;-76
2023/06/03 00:49:06;;;;;;;6.75;4.00;;;6.90;99.90;;;;;;5034965;28;20441;-76
2023/06/03 00:51:35;;;;;;;6.30;4.60;;;6.90;99.90;;;;;;5017150;28;20021;-75
2023/06/03 00:54:01;;;;;;;6.75;4.55;;;6.90;99.90;;;;;;5016713;28;20076;-77
2023/06/03 00:56:29;;;;;;;9.30;4.97;;;6.90;99.90;;;;;;5015086;28;20048;-75
2023/06/03 00:58:55;;;;;;;7.68;4.22;;;6.80;99.90;;;;;;5016737;28;20030;-75
2023/06/03 01:01:21;;;;;;;7.80;4.80;;;6.80;99.90;;;;;;5034805;28;20070;-75
2023/06/03 01:03:47;;;;;;;6.70;4.10;;;6.80;99.90;;;;;;5016911;28;20033;-77
2023/06/03 01:06:21;;;;;;;7.05;4.55;;;6.70;99.90;;;;;;5015916;28;20493;-77
2023/06/03 01:09:03;;;;;;;4.85;3.70;;;6.70;99.90;;;;;;5015880;28;20068;-75
2023/06/03 01:12:05;;;;;;;8.33;4.20;;;6.70;99.90;;;;;;5016788;28;20391;-77
2023/06/03 01:14:50;;;;;;;7.32;4.20;;;6.60;99.90;;;;;;5016861;28;20100;-76
2023/06/03 01:17:20;;;;;;;7.03;3.90;;;6.60;99.90;;;;;;5016281;28;20478;-77
2023/06/03 01:19:49;;;;;;;5.28;3.88;;;6.60;99.90;;;;;;5032419;28;20034;-76
2023/06/03 01:22:26;;;;;;;7.57;4.28;;;6.50;99.90;;;;;;5034154;28;20053;-77
2023/06/03 01:25:03;;;;;;;9.20;4.20;;;6.50;99.90;;;;;;5034561;28;20030;-75
2023/06/03 01:27:28;;;;;;;5.85;4.15;;;6.50;99.90;;;;;;4994892;28;20053;-77
2023/06/03 01:29:54;;;;;;;6.47;4.00;;;6.50;99.90;;;;;;4994980;28;20110;-77
2023/06/03 01:32:20;;;;;;;5.70;3.80;;;6.50;99.90;;;;;;4977591;28;20023;-76
2023/06/03 01:34:47;;;;;;;7.60;4.57;;;6.50;99.90;;;;;;4977519;28;20026;-76
2023/06/03 01:37:12;;;;;;;7.13;3.90;;;6.40;99.90;;;;;;4977451;28;20018;-77
2023/06/03 01:39:40;;;;;;;6.15;3.45;;;6.40;99.90;;;;;;4994865;28;20037;-77
2023/06/03 01:42:10;;;;;;;9.20;4.25;;;6.40;99.90;;;;;;4994688;28;20025;-77
2023/06/03 01:44:37;;;;;;;8.52;4.18;;;6.40;99.90;;;;;;4977380;28;20026;-75
2023/06/03 01:47:03;;;;;;;6.50;4.32;;;6.40;99.90;;;;;;4977219;28;20029;-77
2023/06/03 01:49:31;;;;;;;5.15;3.50;;;6.30;99.90;;;;;;4994671;28;20057;-78
2023/06/03 01:52:01;;;;;;;6.75;3.90;;;6.30;99.90;;;;;;4977068;28;20023;-77
2023/06/03 01:54:27;;;;;;;6.40;4.38;;;6.20;99.90;;;;;;4977042;28;20034;-75
2023/06/03 01:56:54;;;;;;;8.43;4.10;;;6.20;99.90;;;;;;4977098;28;20031;-76
2023/06/03 01:59:24;;;;;;;4.72;3.85;;;6.10;99.90;;;;;;4976797;28;20439;-76
2023/06/03 02:01:55;;;;;;;5.22;3.92;;;6.10;99.90;;;;;;4977036;28;20113;-75
2023/06/03 02:04:21;;;;;;;8.18;4.18;;;6.10;99.90;;;;;;4994416;28;20444;-76
2023/06/03 02:06:59;;;;;;;5.47;3.80;;;6.00;99.90;;;;;;4976943;28;20383;-75
2023/06/03 02:09:27;;;;;;;6.85;3.88;;;6.10;99.90;;;;;;4994250;28;20581;-78
2023/06/03 02:11:57;;;;;;;8.13;4.20;;;6.00;99.90;;;;;;4977020;28;20361;-75
2023/06/03 02:14:23;;;;;;;7.50;4.00;;;6.00;99.90;;;;;;4976882;28;20019;-78
2023/06/03 02:16:49;;;;;;;4.22;3.50;;;6.00;99.90;;;;;;4994075;28;20030;-77
2023/06/03 02:19:16;;;;;;;6.70;4.03;;;6.00;99.90;;;;;;4994249;28;20369;-76
2023/06/03 02:21:43;;;;;;;8.27;3.95;;;5.90;99.90;;;;;;4993981;28;20105;-75
2023/06/03 02:24:09;;;;;;;8.85;3.78;;;5.80;99.90;;;;;;4994087;28;20554;-75
2023/06/03 02:26:35;;;;;;;5.93;3.42;;;5.80;99.90;;;;;;4994003;28;20058;-75
2023/06/03 02:29:02;;;;;;;4.78;3.47;;;5.80;99.90;;;;;;4976571;28;20514;-75
2023/06/03 02:31:29;;;;;;;6.68;3.95;;;5.80;99.90;;;;;;4994126;28;20384;-75
2023/06/03 02:33:55;;;;;;;8.82;3.88;;;5.80;99.90;;;;;;4976551;28;20029;-75
2023/06/03 02:36:20;;;;;;;5.13;3.70;;;5.80;99.90;;;;;;4994073;28;20019;-77
2023/06/03 02:38:47;;;;;;;11.63;4.07;;;5.70;99.90;;;;;;4993977;28;20487;-76
2023/06/03 02:41:13;;;;;;;9.20;3.97;;;5.80;99.90;;;;;;4976538;28;20022;-75
2023/06/03 02:43:41;;;;;;;7.68;3.33;;;5.70;99.90;;;;;;5003993;28;20084;-75
2023/06/03 02:46:06;;;;;;;9.38;3.97;;;5.70;99.90;;;;;;5013536;28;20049;-75
2023/06/03 02:48:32;;;;;;;5.78;4.07;;;5.70;99.90;;;;;;5013628;28;20466;-76
2023/06/03 02:50:57;;;;;;;6.90;3.58;;;5.70;99.90;;;;;;4995986;28;20117;-77
2023/06/03 02:53:23;;;;;;;11.23;5.07;;;5.70;99.90;;;;;;5013434;28;20463;-77
2023/06/03 02:55:49;;;;;;;5.68;3.83;;;5.70;99.90;;;;;;5013448;28;20033;-75
2023/06/03 02:58:15;;;;;;;5.00;3.70;;;5.60;99.90;;;;;;4995817;28;20061;-75
2023/06/03 03:00:41;;;;;;;6.47;5.07;;;5.60;99.90;;;;;;5013349;28;20483;-77
2023/06/03 03:03:07;;;;;;;8.60;3.78;;;5.70;99.90;;;;;;5013369;28;20056;-78
2023/06/03 03:05:34;;;;;;;6.80;3.42;;;5.70;99.90;;;;;;5013557;28;20101;-75
2023/06/03 03:07:59;;;;;;;6.53;4.75;;;5.70;99.90;;;;;;4995656;28;20030;-75
2023/06/03 03:10:25;;;;;;;7.68;4.07;;;5.70;99.90;;;;;;5014741;28;20026;-75
2023/06/03 03:12:51;;;;;;;3.67;3.33;;;5.70;99.90;;;;;;5017153;28;20018;-75
2023/06/03 03:15:16;;;;;;;8.55;4.10;;;5.70;99.90;;;;;;5017192;28;20109;-77
2023/06/03 03:17:42;;;;;;;6.55;3.58;;;5.70;99.90;;;;;;5017348;28;20361;-77
2023/06/03 03:20:09;;;;;;;7.43;3.83;;;5.80;99.90;;;;;;5017038;28;20033;-75
2023/06/03 03:22:39;;;;;;;8.65;4.32;;;5.90;99.90;;;;;;5016843;28;20063;-75
2023/06/03 03:25:05;;;;;;;4.63;3.67;;;6.10;99.90;;;;;;5016868;28;20026;-75
2023/06/03 03:27:31;;;;;;;10.32;4.22;;;6.30;99.90;;;;;;5016933;28;20026;-79
2023/06/03 03:30:00;;;;;;;6.70;3.38;;;6.50;99.90;;;;;;5016804;28;20026;-74
2023/06/03 03:32:26;;;;;;;5.22;2.95;;;6.70;98.40;;;;;;5016724;28;20080;-75
2023/06/03 03:35:30;;;;;;;4.35;2.95;;;6.90;96.10;;;;;;5016708;28;20030;-78
2023/06/03 03:38:02;;;;;;;7.45;3.33;;;7.10;93.20;;;;;;5012717;28;20034;-76
2023/06/03 03:40:29;;;;;;;3.95;3.13;;;7.20;89.50;;;;;;4999009;28;20028;-78
2023/06/03 03:42:56;;;;;;;5.68;3.25;;;7.40;89.20;;;;;;5016559;28;20429;-78
2023/06/03 03:45:25;;;;;;;10.93;3.72;;;7.60;87.90;;;;;;5016540;28;20021;-76
2023/06/03 03:47:51;;;;;;;8.65;3.88;;;7.60;85.40;;;;;;5016391;28;20030;-76
2023/06/03 03:50:35;;;;;;;6.82;3.15;;;7.80;84.80;;;;;;4998810;28;20053;-77
2023/06/03 03:53:04;;;;;;;3.75;3.10;;;8.00;83.00;;;;;;4998756;28;20038;-78
2023/06/03 03:55:31;;;;;;;5.55;3.05;;;8.20;80.80;;;;;;4998763;28;20049;-76
2023/06/03 03:57:57;;;;;;;5.85;3.03;;;8.40;79.10;;;;;;4998725;28;20361;-76
2023/06/03 04:00:22;;;;;;;5.93;3.22;;;8.50;78.50;;;;;;5016219;28;20076;-76
2023/06/03 04:02:53;;;;;;;3.55;3.20;;;8.60;77.90;;;;;;4998481;28;20468;-76
2023/06/03 04:05:22;;;;;;;5.43;3.28;;;8.70;77.50;;;;;;4998551;28;20116;-76
2023/06/03 04:07:49;;;;;;;7.78;3.10;;;8.70;77.20;;;;;;5015850;28;20049;-76
2023/06/03 04:10:15;;;;;;;5.35;3.00;;;8.70;77.60;;;;;;5015974;28;20175;-79
2023/06/03 04:12:40;;;;;;;6.03;3.50;;;8.70;77.50;;;;;;4998363;28;20029;-76
2023/06/03 04:15:08;;;;;;;4.72;3.28;;;8.70;77.90;;;;;;5015903;28;20026;-77
2023/06/03 04:17:37;;;;;;;5.32;3.35;;;8.70;77.50;;;;;;4998281;28;20037;-76
2023/06/03 04:20:09;;;;;;;5.95;3.63;;;8.70;77.50;;;;;;5015966;28;20467;-77
2023/06/03 04:22:35;;;;;;;6.35;3.35;;;8.70;78.00;;;;;;5015405;28;20527;-76
2023/06/03 04:25:07;;;;;;;6.30;3.17;;;8.80;77.30;;;;;;4997837;28;20521;-76
2023/06/03 04:27:32;;;;;;;4.43;2.90;;;9.00;77.50;;;;;;4998091;28;20037;-76
2023/06/03 04:29:58;;;;;;;6.07;2.72;;;9.00;76.50;;;;;;4998158;28;20030;-77
2023/06/03 04:32:24;;;;;;;3.50;2.45;;;9.10;75.80;;;;;;4998027;28;20105;-76
2023/06/03 04:34:51;;;;;;;5.88;3.20;;;9.10;75.80;;;;;;5015582;28;20423;-78
2023/06/03 04:37:18;;;;;;;6.72;2.92;;;9.10;76.10;;;;;;5015966;28;20054;-76
2023/06/03 04:39:43;;;;;;;4.20;2.70;;;9.20;76.10;;;;;;4998009;28;20408;-78
2023/06/03 04:42:10;;;;;;;4.45;3.28;;;9.20;75.70;;;;;;5015383;28;20064;-76
2023/06/03 04:44:38;;;;;;;4.95;2.72;;;9.40;75.50;;;;;;4997765;28;20088;-78
2023/06/03 04:47:10;;;;;;;3.90;2.80;;;9.50;75.20;;;;;;4997690;28;20018;-76
2023/06/03 04:49:38;;;;;;;7.97;3.60;;;9.50;74.30;;;;;;5015409;28;20368;-78
2023/06/03 04:52:09;;;;;;;6.70;2.92;;;9.50;74.60;;;;;;5015239;28;20364;-77
2023/06/03 04:54:36;;;;;;;7.43;2.78;;;9.60;73.90;;;;;;5022928;28;20087;-76
2023/06/03 04:57:02;;;;;;;9.57;2.80;;;9.60;74.00;;;;;;5005498;28;21057;-76
2023/06/03 04:59:28;;;;;;;3.42;2.70;;;9.50;73.70;;;;;;5025319;28;20025;-76
2023/06/03 05:01:54;;;;;;;6.80;3.15;;;9.70;74.20;;;;;;5024355;28;20353;-76
2023/06/03 05:04:22;;;;;;;3.10;2.72;;;9.60;74.10;;;;;;5023549;28;20383;-76
2023/06/03 05:06:48;;;;;;;8.85;2.60;;;9.70;74.90;;;;;;5021049;28;20021;-78
2023/06/03 05:09:14;;;;;;;5.30;2.88;;;9.70;74.50;;;;;;5024224;28;20064;-76
2023/06/03 05:11:40;;;;;;;3.28;2.75;;;9.70;74.10;;;;;;5025327;28;20018;-79
2023/06/03 05:14:07;;;;;;;3.47;2.53;;;9.70;74.70;;;;;;5029136;28;20029;-76
2023/06/03 05:16:33;;;;;;;3.17;2.85;;;9.70;73.90;;;;;;5016771;28;20036;-76
2023/06/03 05:18:58;;;;;;;3.83;2.78;;;9.60;74.40;;;;;;5034689;28;20025;-76
2023/06/03 05:21:24;;;;;;;4.88;2.55;;;9.70;74.70;;;;;;5010830;28;20534;-78
2023/06/03 05:23:49;;;;;;;4.22;2.70;;;9.70;73.90;;;;;;5006719;28;20129;-76
2023/06/03 05:26:15;;;;;;;2.92;2.63;;;9.60;73.80;;;;;;5006533;28;20039;-76
2023/06/03 05:28:41;;;;;;;3.88;3.10;;;9.70;73.80;;;;;;5024418;28;20030;-75
2023/06/03 05:31:06;;;;;;;3.70;3.08;;;9.70;74.90;;;;;;5022855;28;20017;-76
2023/06/03 05:33:35;;;;;;;3.20;2.92;;;9.80;75.60;;;;;;5024971;28;20052;-76
2023/06/03 05:36:02;;;;;;;6.32;2.78;;;9.70;74.20;;;;;;5016447;28;20052;-77
2023/06/03 05:38:27;;;;;;;3.85;2.90;;;9.70;75.40;;;;;;5034253;28;20026;-79
2023/06/03 05:40:53;;;;;;;6.18;3.10;;;9.80;75.20;;;;;;5032892;28;20024;-79
2023/06/03 05:43:19;;;;;;;6.72;3.50;;;9.90;75.50;;;;;;5023610;28;20018;-77
2023/06/03 05:45:46;;;;;;;4.95;3.20;;;10.10;75.30;;;;;;5005239;28;20021;-78
2023/06/03 05:48:11;;;;;;;4.90;2.70;;;10.00;73.00;;;;;;5002204;28;20053;-79
2023/06/03 05:50:46;;;;;;;4.68;3.10;;;10.10;73.30;;;;;;5017653;28;20491;-77
2023/06/03 05:53:12;;;;;;;5.00;2.35;;;10.10;73.20;;;;;;5017911;28;20083;-76
2023/06/03 05:55:37;;;;;;;4.50;2.80;;;10.10;72.90;;;;;;5019664;28;20030;-78
2023/06/03 05:58:03;;;;;;;4.97;2.83;;;10.10;72.40;;;;;;5003762;28;20049;-76
2023/06/03 06:00:29;;;;;;;4.38;2.33;;;10.10;73.50;;;;;;5013937;28;20065;-77
2023/06/03 06:02:55;;;;;;;5.68;2.97;;;10.30;73.30;;;;;;5013578;22;20518;-76
2023/06/03 06:05:22;;;;;;;3.67;2.90;;;10.30;71.80;;;;;;5033792;28;20025;-77
2023/06/03 06:07:48;;;;;;;8.00;3.45;;;10.30;71.50;;;;;;5033800;28;20387;-77
2023/06/03 06:10:15;;;;;;;7.97;3.03;;;10.40;72.20;;;;;;5038328;28;20017;-79
2023/06/03 06:12:41;;;;;;;5.57;2.58;;;10.50;71.40;;;;;;5053289;28;20017;-79
2023/06/03 06:15:07;;;;;;;4.43;3.13;;;10.60;70.70;;;;;;5043835;28;20394;-77
2023/06/03 06:17:33;;;;;;;8.55;3.20;;;10.60;71.40;;;;;;5035632;28;20026;-77
2023/06/03 06:19:59;;;;;;;4.65;2.55;;;10.80;70.80;;;;;;5038719;28;20033;-79
2023/06/03 06:22:26;;;;;;;5.00;2.67;;;10.90;71.10;;;;;;5053072;28;20021;-79
2023/06/03 06:24:52;;;;;;;3.58;2.80;;;11.20;70.50;;;;;;5053409;28;20108;-76
2023/06/03 06:27:18;;;;;;;7.35;3.88;;;11.30;70.20;;;;;;5053155;28;20075;-77
2023/06/03 06:29:43;;;;;;;8.02;3.15;;;11.30;69.20;;;;;;5035745;28;20072;-77
2023/06/03 06:32:14;;;;;;;4.80;2.72;;;11.40;69.70;;;;;;5035424;28;20028;-79
2023/06/03 06:34:39;;;;;;;4.72;2.53;;;11.50;69.80;;;;;;5024678;28;20025;-79
2023/06/03 06:37:09;;;;;;;5.38;3.30;;;11.70;70.20;;;;;;5032648;28;20029;-77
2023/06/03 06:39:47;;;;;;;4.22;2.92;;;11.60;68.60;;;;;;5053261;28;20029;-77
2023/06/03 06:42:35;;;;;;;5.95;3.72;;;11.40;69.50;;;;;;5033762;28;20385;-78
2023/06/03 06:45:16;;;;;;;3.97;3.30;;;11.60;70.50;;;;;;5045002;28;20051;-79
2023/06/03 06:47:42;;;;;;;6.95;3.70;;;11.70;70.20;;;;;;5046458;28;20029;-78
2023/06/03 06:50:15;;;;;;;6.53;3.05;;;12.00;69.90;;;;;;5027804;28;20391;-77
2023/06/03 06:52:41;;;;;;;6.35;3.47;;;12.20;68.70;;;;;;5044454;28;20017;-80
2023/06/03 06:55:43;;;;;;;6.05;3.72;;;12.40;68.40;;;;;;5047284;28;20025;-80
2023/06/03 06:58:09;;;;;;;7.63;3.70;;;12.50;67.50;;;;;;5022483;28;20079;-80
2023/06/03 07:00:35;;;;;;;5.50;3.25;;;12.50;67.30;;;;;;5046834;28;20021;-77
2023/06/03 07:03:01;;;;;;;5.40;3.25;;;12.50;67.30;;;;;;5047186;28;20061;-78
2023/06/03 07:05:27;;;;;;;6.85;3.35;;;12.60;66.80;;;;;;5029350;28;20067;-77
2023/06/03 07:07:52;;;;;;;5.45;3.17;;;12.50;67.00;;;;;;5044470;28;20049;-79
2023/06/03 07:10:21;;;;;;;4.15;2.92;;;12.70;67.40;;;;;;5037413;28;20021;-78
2023/06/03 07:12:51;;;;;;;3.88;3.55;;;12.90;67.30;;;;;;5036534;28;20430;-79
2023/06/03 07:15:20;;;;;;;3.35;2.97;;;13.20;68.20;;;;;;5043777;28;20026;-78
2023/06/03 07:17:50;;;;;;;6.07;3.97;;;13.40;67.50;;;;;;5044158;28;20470;-78
2023/06/03 07:20:22;;;;;;;6.05;4.05;;;13.50;65.30;;;;;;5036357;28;20143;-78
2023/06/03 07:22:49;;;;;;;4.82;3.10;;;13.50;64.90;;;;;;5035890;28;20029;-78
2023/06/03 07:25:40;;;;;;;6.53;3.60;;;13.60;65.00;;;;;;5035973;28;20148;-79
2023/06/03 07:28:14;;;;;;;4.35;3.35;;;13.40;64.90;;;;;;5035021;28;20557;-80
2023/06/03 07:30:41;;;;;;;6.65;3.70;;;13.50;65.20;;;;;;5038851;28;20508;-78
2023/06/03 07:33:10;;;;;;;5.22;3.20;;;13.70;64.70;;;;;;5036075;28;20036;-77
2023/06/03 07:35:36;;;;;;;6.65;3.25;;;13.90;63.80;;;;;;5028418;28;20116;-81
2023/06/03 07:38:06;;;;;;;6.13;3.30;;;14.00;62.90;;;;;;5044945;28;20025;-77
2023/06/03 07:40:42;;;;;;;6.57;3.50;;;13.80;63.80;;;;;;5036713;28;20055;-77
2023/06/03 07:43:11;;;;;;;6.43;4.03;;;13.70;63.80;;;;;;5014903;28;20030;-78
2023/06/03 07:45:37;;;;;;;7.72;4.03;;;13.80;62.70;;;;;;5033090;28;20446;-77
2023/06/03 07:48:04;;;;;;;4.32;3.00;;;14.10;61.60;;;;;;5043258;28;20073;-77
2023/06/03 07:50:32;;;;;;;4.97;2.95;;;14.10;62.00;;;;;;5018347;28;20032;-78
2023/06/03 07:53:03;;;;;;;4.57;2.60;;;14.10;60.70;;;;;;5018090;28;20026;-77
2023/06/03 07:55:43;;;;;;;5.97;3.00;;;14.00;61.00;;;;;;5017457;28;20022;-78
2023/06/03 07:58:10;;;;;;;7.47;3.28;;;14.40;62.30;;;;;;5018190;28;20025;-77
2023/06/03 08:00:40;;;;;;;5.90;2.70;;;14.40;60.60;;;;;;5018200;28;20017;-77
2023/06/03 08:03:06;;;;;;;5.70;2.53;;;14.60;59.30;;;;;;5035616;28;20049;-78
2023/06/03 08:05:34;;;;;;;3.97;2.30;;;14.90;58.90;;;;;;5035998;28;20121;-78
2023/06/03 08:08:05;;;;;;;6.10;2.90;;;15.20;57.40;;;;;;5017670;28;20034;-78
2023/06/03 08:10:34;;;;;;;4.05;2.78;;;15.40;57.20;;;;;;5035696;28;20076;-77
2023/06/03 08:13:01;;;;;;;6.45;3.22;;;15.40;56.00;;;;;;5035438;28;20080;-77
2023/06/03 08:15:35;;;;;;;2.58;2.35;;;15.50;56.20;;;;;;5035567;28;20029;-78
2023/06/03 08:18:03;;;;;;;2.67;2.40;;;15.40;55.60;;;;;;5017745;28;20029;-78
2023/06/03 08:20:29;;;;;;;4.50;2.80;;;15.50;54.50;;;;;;5035417;28;20026;-77
2023/06/03 08:22:55;;;;;;;7.30;3.22;;;15.50;56.30;;;;;;5035153;28;20034;-78
2023/06/03 08:25:22;;;;;;;7.15;3.05;;;15.30;54.70;;;;;;5035304;28;20478;-77
2023/06/03 08:27:48;;;;;;;4.43;3.20;;;15.00;55.70;;;;;;5034857;28;20086;-77
2023/06/03 08:30:14;;;;;;;3.55;2.38;;;15.30;55.60;;;;;;5017179;28;20466;-78
2023/06/03 08:32:41;;;;;;;4.28;2.22;;;15.30;55.30;;;;;;5035151;28;20026;-78
2023/06/03 08:35:11;;;;;;;7.75;2.92;;;15.40;55.10;;;;;;5035150;28;20543;-77
2023/06/03 08:37:37;;;;;;;3.15;2.20;;;15.10;54.50;;;;;;5034832;28;20010;-78
2023/06/03 08:40:08;;;;;;;3.03;2.47;;;15.00;53.70;;;;;;5035002;28;20030;-80
2023/06/03 08:42:46;;;;;;;6.65;2.60;;;15.10;55.50;;;;;;5034362;28;20021;-80
2023/06/03 08:45:17;;;;;;;3.85;2.28;;;15.20;54.70;;;;;;5016575;28;20028;-80
2023/06/03 08:47:55;;;;;;;3.75;2.25;;;14.90;54.40;;;;;;5019835;28;20033;-79
2023/06/03 08:50:22;;;;;;;3.80;2.53;;;15.20;54.00;;;;;;5018656;28;20048;-79
2023/06/03 08:52:51;;;;;;;4.93;2.00;;;15.50;53.40;;;;;;5022506;28;20163;-78
2023/06/03 08:55:17;;;;;;;5.53;2.40;;;15.60;51.80;;;;;;5040047;28;20020;-78
2023/06/03 08:57:49;;;;;;;5.43;1.92;;;15.50;52.00;;;;;;5042093;28;20033;-78
2023/06/03 09:00:20;;;;;;;2.63;1.73;;;15.60;48.80;;;;;;5032591;28;20025;-78
2023/06/03 09:02:47;;;;;;;2.92;2.00;;;15.70;48.40;;;;;;5012666;28;20063;-79
2023/06/03 09:05:13;;;;;;;4.88;1.95;;;15.90;48.10;;;;;;5031651;28;20534;-78
2023/06/03 09:07:39;;;;;;;3.10;1.58;;;16.00;48.00;;;;;;5013074;28;20032;-78
2023/06/03 09:10:07;;;;;;;4.47;1.90;;;16.00;46.70;;;;;;5032027;28;20029;-78
2023/06/03 09:12:35;;;;;;;5.28;1.50;;;16.10;48.60;;;;;;5014163;28;20029;-78
2023/06/03 09:15:01;;;;;;;4.60;1.52;;;16.00;49.70;;;;;;5030629;28;20053;-78
2023/06/03 09:17:28;;;;;;;3.03;1.20;;;15.80;48.30;;;;;;5034418;28;20017;-79
2023/06/03 09:19:57;;;;;;;2.08;1.20;;;15.60;44.80;;;;;;5016816;28;20032;-78
2023/06/03 09:22:25;;;;;;;8.85;1.75;;;15.40;43.90;;;;;;5034654;28;20021;-78
2023/06/03 09:24:50;;;;;;;2.08;1.60;;;15.30;42.40;;;;;;5016700;28;20024;-79
2023/06/03 09:27:16;;;;;;;3.42;1.27;;;15.30;44.40;;;;;;5014694;28;20021;-79
2023/06/03 09:29:42;;;;;;;3.83;1.50;;;15.60;46.70;;;;;;5034383;28;20490;-79
2023/06/03 09:32:08;;;;;;;1.60;1.30;;;15.60;46.50;;;;;;5016478;28;20025;-79
2023/06/03 09:34:34;;;;;;;3.92;1.60;;;15.70;46.40;;;;;;5034482;28;20022;-79
2023/06/03 09:37:08;;;;;;;4.28;1.23;;;15.90;47.50;;;;;;5015891;28;20025;-79
2023/06/03 09:39:34;;;;;;;1.55;1.40;;;15.70;47.00;;;;;;5033158;28;20074;-79
2023/06/03 09:42:00;;;;;;;3.92;1.80;;;15.70;47.90;;;;;;5034133;28;20096;-79
2023/06/03 09:44:46;;;;;;;2.53;1.40;;;15.60;46.30;;;;;;5016210;28;20025;-79
2023/06/03 09:47:12;;;;;;;3.08;1.20;;;15.70;47.10;;;;;;5016142;28;20017;-79
2023/06/03 09:49:38;;;;;;;3.08;1.45;;;15.80;46.10;;;;;;4997617;28;20495;-79
2023/06/03 09:52:09;;;;;;;2.53;1.85;;;15.70;43.10;;;;;;5033571;28;20659;-80
2023/06/03 09:54:35;;;;;;;3.15;1.10;;;16.10;44.30;;;;;;5034089;28;20111;-79
2023/06/03 09:57:12;;;;;;;2.75;1.30;;;16.00;44.10;;;;;;5015994;28;20025;-79
2023/06/03 09:59:40;;;;;;;1.73;1.27;;;16.30;44.30;;;;;;4999787;28;20026;-80
2023/06/03 10:02:12;;;;;;;3.05;1.50;;;16.20;44.10;;;;;;5031357;28;20045;-79
2023/06/03 10:04:39;;;;;;;2.60;1.10;;;16.30;44.20;;;;;;5016129;28;20494;-79
2023/06/03 10:07:10;;;;;;;3.53;1.45;;;16.40;43.50;;;;;;5015914;28;20025;-79
2023/06/03 10:09:36;;;;;;;5.20;1.30;;;16.50;43.20;;;;;;5033543;28;20025;-79
2023/06/03 10:12:02;;;;;;;10.15;1.92;;;16.20;42.40;;;;;;5032575;28;20112;-79
2023/06/03 10:14:28;;;;;;;1.48;1.10;;;16.20;43.10;;;;;;5014102;28;20069;-79
2023/06/03 10:17:10;;;;;;;2.00;1.42;;;16.30;43.00;;;;;;5015771;28;20103;-79
2023/06/03 10:19:40;;;;;;;6.53;1.15;;;16.10;42.80;;;;;;5033222;28;20017;-79
2023/06/03 10:22:09;;;;;;;4.88;1.88;;;16.10;44.30;;;;;;5015740;28;20052;-79
2023/06/03 10:24:38;;;;;;;2.45;1.10;;;16.30;44.50;;;;;;5031621;28;20036;-80
2023/06/03 10:27:04;;;;;;;1.30;1.20;;;16.40;44.20;;;;;;5032927;28;20117;-79
2023/06/03 10:29:33;;;;;;;1.50;1.30;;;16.20;44.50;;;;;;5033121;28;20091;-79
2023/06/03 10:32:01;;;;;;;2.03;1.30;;;16.40;44.10;;;;;;5015146;28;20495;-79
2023/06/03 10:34:29;;;;;;;2.78;1.30;;;16.50;44.00;;;;;;5032886;28;20422;-79
2023/06/03 10:36:57;;;;;;;1.02;1.02;;;16.70;42.70;;;;;;5013564;28;20084;-79
2023/06/03 10:39:27;;;;;;;2.15;1.35;;;17.00;44.10;;;;;;5033383;28;20553;-82
2023/06/03 10:41:57;;;;;;;1.52;1.00;;;16.90;43.50;;;;;;5033493;28;20053;-82
2023/06/03 10:44:23;;;;;;;2.03;1.00;;;16.80;43.00;;;;;;5033229;28;20109;-83
2023/06/03 10:46:59;;;;;;;2.08;1.60;;;17.00;43.10;;;;;;5032828;28;20382;-82
2023/06/03 10:49:30;;;;;;;1.50;1.00;;;16.70;43.20;;;;;;5031058;28;20116;-80
2023/06/03 10:52:08;;;;;;;1.73;1.00;;;16.40;42.70;;;;;;5033261;28;20389;-80
2023/06/03 10:54:36;;;;;;;1.45;1.10;;;16.40;43.20;;;;;;5015624;28;20033;-80
2023/06/03 10:57:08;;;;;;;2.50;1.10;;;16.30;43.40;;;;;;5015439;28;20109;-80
2023/06/03 10:59:52;;;;;;;2.22;1.10;;;16.30;42.80;;;;;;5015059;28;20121;-80
2023/06/03 11:02:20;;;;;;;3.42;1.10;;;16.40;42.10;;;;;;5014902;28;20045;-80
2023/06/03 11:04:46;;;;;;;1.70;1.58;;;16.40;41.10;;;;;;5032761;28;20025;-82
2023/06/03 11:07:30;;;;;;;1.50;1.20;;;16.50;42.30;;;;;;5014950;28;20025;-80
2023/06/03 11:09:55;;;;;;;2.60;1.38;;;16.30;40.90;;;;;;5018239;28;20069;-80
2023/06/03 11:12:21;;;;;;;3.63;1.00;;;16.50;40.50;;;;;;5012021;28;20058;-80
2023/06/03 11:14:48;;;;;;;1.00;0.90;;;16.60;40.30;;;;;;5013437;28;20392;-80
2023/06/03 11:17:15;;;;;;;2.00;1.00;;;16.60;40.60;;;;;;5013381;28;20022;-80
2023/06/03 11:19:44;;;;;;;3.00;0.95;;;16.70;41.60;;;;;;5011970;28;20109;-80
2023/06/03 11:22:11;;;;;;;1.60;1.15;;;16.60;42.30;;;;;;5013015;28;20041;-78
2023/06/03 11:24:42;;;;;;;2.97;1.13;;;16.70;42.10;;;;;;4995645;28;20022;-79
2023/06/03 11:27:18;;;;;;;2.10;1.40;;;16.90;43.10;;;;;;4995606;28;20129;-79
2023/06/03 11:29:47;;;;;;;5.85;1.42;;;17.10;44.00;;;;;;4995456;28;20346;-79
2023/06/03 11:32:17;;;;;;;2.58;1.40;;;17.00;43.40;;;;;;5015593;28;20030;-79
2023/06/03 11:34:44;;;;;;;6.57;1.48;;;17.20;43.40;;;;;;4999251;28;20073;-81
2023/06/03 11:37:19;;;;;;;2.55;1.30;;;17.40;43.60;;;;;;5016695;28;20037;-79
2023/06/03 11:40:05;;;;;;;1.55;1.08;;;17.50;45.10;;;;;;4999202;28;20025;-79
2023/06/03 11:42:49;;;;;;;3.17;1.23;;;17.50;44.20;;;;;;4998086;28;20049;-79
2023/06/03 11:45:30;;;;;;;3.40;1.27;;;17.40;43.80;;;;;;5015048;28;20045;-79
2023/06/03 11:48:01;;;;;;;1.55;1.00;;;17.30;43.90;;;;;;5016408;28;20057;-79
2023/06/03 11:50:33;;;;;;;2.00;0.85;;;17.10;43.20;;;;;;5015199;28;20029;-79
2023/06/03 11:53:00;;;;;;;3.80;1.23;;;17.10;42.80;;;;;;5004292;28;20046;-79
2023/06/03 11:55:31;;;;;;;4.10;1.52;;;17.00;43.30;;;;;;4995585;28;20054;-78
2023/06/03 11:58:10;;;;;;;4.45;1.52;;;17.20;44.00;;;;;;4995602;28;20041;-79
2023/06/03 12:00:37;;;;;;;4.50;1.00;;;17.30;44.00;;;;;;4995860;28;20023;-81
2023/06/03 12:03:03;;;;;;;3.10;1.38;;;17.40;43.40;;;;;;4989191;28;20128;-80
2023/06/03 12:05:29;;;;;;;4.85;1.30;;;17.40;43.00;;;;;;4997415;28;20022;-78
2023/06/03 12:07:56;;;;;;;1.23;0.80;;;17.50;41.60;;;;;;5016638;28;20045;-78
2023/06/03 12:10:21;;;;;;;2.15;1.02;;;17.30;41.00;;;;;;5016962;28;20467;-78
2023/06/03 12:12:52;;;;;;;2.67;0.93;;;17.50;42.00;;;;;;5034629;28;20041;-79
2023/06/03 12:15:18;;;;;;;5.70;0.90;;;17.60;41.60;;;;;;5034651;28;20030;-81
2023/06/03 12:17:44;;;;;;;2.30;1.15;;;17.60;41.60;;;;;;5034128;28;20099;-79
2023/06/03 12:20:28;;;;;;;1.20;0.90;;;17.60;41.60;;;;;;5016971;28;20109;-80
2023/06/03 12:23:05;;;;;;;1.70;1.10;;;17.70;41.70;;;;;;5034508;28;20119;-80
2023/06/03 12:25:35;;;;;;;3.72;1.10;;;17.90;40.80;;;;;;5016860;28;20017;-80
2023/06/03 12:28:21;;;;;;;2.95;1.33;;;17.80;41.50;;;;;;5034480;28;20393;-80
2023/06/03 12:30:48;;;;;;;2.58;1.02;;;17.90;41.90;;;;;;5017039;28;20026;-79
2023/06/03 12:33:13;;;;;;;1.00;0.90;;;17.70;42.10;;;;;;5033486;28;20048;-79
2023/06/03 12:35:53;;;;;;;0.93;0.90;;;17.70;41.60;;;;;;5016545;28;20014;-79
2023/06/03 12:38:19;;;;;;;2.53;1.38;;;17.60;40.40;;;;;;5033795;28;20053;-80
2023/06/03 12:40:45;;;;;;;2.30;1.30;;;17.60;39.70;;;;;;5034467;28;20026;-80
2023/06/03 12:43:21;;;;;;;1.88;0.80;;;17.60;40.70;;;;;;5033926;28;20072;-80
2023/06/03 12:45:47;;;;;;;1.55;1.00;;;17.90;41.10;;;;;;5034476;28;20100;-81
2023/06/03 12:48:33;;;;;;;1.70;1.00;;;18.00;39.80;;;;;;5033366;28;20136;-80
2023/06/03 12:51:00;;;;;;;0.75;0.75;;;18.00;41.90;;;;;;5044107;28;20032;-79
2023/06/03 12:53:25;;;;;;;2.30;0.80;;;17.90;40.90;;;;;;5047552;28;20036;-79
2023/06/03 12:55:51;;;;;;;2.50;0.93;;;17.80;40.80;;;;;;5049592;28;20021;-80
2023/06/03 12:58:18;;;;;;;1.20;1.10;;;18.00;41.20;;;;;;5040842;28;20451;-81